createdAt,value
2023-07-24T00:01:36.023Z,7.40
2023-07-24T00:16:38.217Z,7.00
2023-07-24T00:31:40.043Z,6.97
2023-07-24T00:46:42.079Z,7.30
2023-07-24T01:01:44.161Z,7.45
2023-07-24T01:16:48.816Z,7.60
2023-07-24T01:31:50.693Z,7.35
2023-07-24T01:46:52.468Z,7.43
2023-07-24T02:01:54.430Z,8.02
2023-07-24T02:16:56.244Z,8.05
2023-07-24T02:31:58.756Z,8.27
2023-07-24T02:47:00.541Z,8.38
2023-07-24T03:02:02.403Z,8.68
2023-07-24T03:17:04.407Z,9.07
2023-07-24T03:32:06.427Z,10.15
2023-07-24T03:47:08.681Z,9.55
2023-07-24T04:02:10.931Z,8.77
2023-07-24T04:17:12.896Z,7.85
2023-07-24T04:32:14.810Z,8.15
2023-07-24T04:47:16.748Z,9.25
2023-07-24T05:02:18.718Z,7.40
2023-07-24T05:17:20.684Z,9.02
2023-07-24T05:32:22.642Z,8.85
2023-07-24T05:47:24.468Z,10.13
2023-07-24T06:02:26.356Z,10.45
2023-07-24T06:17:28.129Z,9.35
2023-07-24T06:32:30.008Z,8.98
2023-07-24T06:47:31.880Z,9.23
2023-07-24T07:02:33.647Z,9.80
2023-07-24T07:17:35.660Z,9.35
2023-07-24T07:32:37.936Z,10.32
2023-07-24T07:47:41.311Z,8.70
2023-07-24T08:02:43.178Z,8.65
2023-07-24T08:17:45.257Z,9.60
2023-07-24T08:32:47.127Z,8.95
2023-07-24T08:47:49.779Z,8.25
2023-07-24T09:02:51.738Z,9.48
2023-07-24T09:17:54.786Z,11.60
2023-07-24T09:32:56.982Z,8.55
2023-07-24T09:48:06.785Z,9.25
2023-07-24T10:03:11.006Z,9.15
2023-07-24T10:18:12.835Z,8.98
2023-07-24T10:33:20.221Z,7.20
2023-07-24T10:48:26.011Z,6.43
2023-07-24T11:03:29.030Z,6.90
2023-07-24T11:18:40.622Z,7.80
2023-07-24T11:33:54.469Z,6.85
2023-07-24T11:48:59.918Z,7.90
2023-07-24T12:04:02.131Z,6.03
2023-07-24T12:19:04.187Z,6.70
2023-07-24T12:34:06.021Z,7.38
2023-07-24T12:49:07.910Z,7.57
2023-07-24T13:04:10.420Z,7.18
2023-07-24T13:19:12.291Z,7.20
2023-07-24T13:34:14.039Z,8.02
2023-07-24T13:49:16.024Z,7.40
2023-07-24T14:04:18.047Z,7.78
2023-07-24T14:19:20.035Z,8.70
2023-07-24T14:34:21.880Z,8.00
2023-07-24T14:49:23.584Z,7.90
2023-07-24T15:04:25.445Z,8.82
2023-07-24T15:19:29.475Z,8.02
2023-07-24T15:34:31.858Z,8.40
2023-07-24T15:49:33.598Z,8.38
2023-07-24T16:04:36.796Z,8.60
2023-07-24T16:19:40.414Z,8.20
2023-07-24T16:34:45.181Z,9.77
2023-07-24T16:49:47.302Z,8.98
2023-07-24T17:04:50.476Z,9.00
2023-07-24T17:19:53.950Z,8.68
2023-07-24T17:34:58.321Z,9.43
2023-07-24T17:50:06.459Z,9.68
2023-07-24T18:05:09.796Z,9.30
2023-07-24T18:20:13.616Z,8.52
2023-07-24T18:35:15.941Z,10.07
2023-07-24T18:50:19.016Z,8.35
2023-07-24T19:05:21.883Z,7.93
2023-07-24T19:20:30.720Z,8.27
2023-07-24T19:35:32.862Z,7.72
2023-07-24T19:50:35.162Z,8.93
2023-07-24T20:05:36.971Z,8.55
2023-07-24T20:20:39.060Z,8.50
2023-07-24T20:35:41.635Z,8.48
2023-07-24T20:50:44.891Z,8.63
2023-07-24T21:05:46.785Z,10.45
2023-07-24T21:20:48.667Z,10.57
2023-07-24T21:36:00.692Z,11.23
2023-07-24T21:51:02.737Z,8.77
2023-07-24T22:06:07.394Z,9.50
2023-07-24T22:21:09.505Z,9.15
2023-07-24T22:36:11.375Z,8.35
2023-07-24T22:51:13.183Z,8.57
2023-07-24T23:06:14.909Z,8.80
2023-07-24T23:21:16.786Z,8.48
2023-07-24T23:36:18.679Z,8.63
2023-07-24T23:51:21.657Z,7.60
